createdAt,value
2022-11-17T06:31:32.396Z,10.80
2022-11-17T06:36:34.449Z,10.80
2022-11-17T06:41:36.582Z,10.70
2022-11-17T06:46:38.480Z,10.70
2022-11-17T06:51:44.937Z,10.60
2022-11-17T06:56:49.685Z,10.50
2022-11-17T07:01:51.675Z,10.40
2022-11-17T07:06:53.517Z,10.40
2022-11-17T07:11:55.391Z,10.40
2022-11-17T07:16:57.305Z,10.30
2022-11-17T07:21:59.172Z,10.30
2022-11-17T07:27:01.048Z,10.30
2022-11-17T07:32:02.926Z,10.30
2022-11-17T07:37:04.728Z,10.20
2022-11-17T07:42:06.690Z,10.20
2022-11-17T07:47:08.586Z,10.20
2022-11-17T07:52:10.431Z,10.20
2022-11-17T07:57:12.351Z,10.20
2022-11-17T08:02:14.278Z,10.20
2022-11-17T08:07:17.612Z,10.20
2022-11-17T08:12:19.456Z,10.10
2022-11-17T08:17:21.310Z,10.10
2022-11-17T08:22:23.183Z,10.10
2022-11-17T08:27:25.488Z,10.10
2022-11-17T08:32:27.390Z,10.10
2022-11-17T08:37:29.259Z,10.10
2022-11-17T08:42:31.110Z,10.00
2022-11-17T08:47:33.090Z,10.00
2022-11-17T08:52:35.016Z,10.00
2022-11-17T08:57:38.622Z,10.00
2022-11-17T09:02:40.597Z,10.00
2022-11-17T09:07:42.469Z,10.00
2022-11-17T09:12:44.294Z,10.00
2022-11-17T09:17:48.028Z,10.00
2022-11-17T09:22:49.872Z,10.00
2022-11-17T09:27:52.504Z,10.00
2022-11-17T09:32:54.330Z,10.00
2022-11-17T09:38:00.842Z,10.00
2022-11-17T09:43:26.498Z,10.00
2022-11-17T09:48:51.939Z,10.00
2022-11-17T09:53:54.548Z,10.00
2022-11-17T09:59:04.677Z,10.00
2022-11-17T10:04:12.535Z,10.00
2022-11-17T10:09:33.865Z,10.00
2022-11-17T10:14:39.852Z,10.00
2022-11-17T10:19:42.142Z,10.00
2022-11-17T10:24:48.113Z,10.00
2022-11-17T10:30:01.178Z,10.00
2022-11-17T10:35:16.300Z,10.00
2022-11-17T10:40:25.929Z,10.00
2022-11-17T10:45:28.318Z,10.00
2022-11-17T10:50:30.583Z,10.10
2022-11-17T10:55:34.095Z,10.10
2022-11-17T11:00:36.958Z,10.10
2022-11-17T11:05:59.211Z,10.10
2022-11-17T11:11:03.189Z,10.10
2022-11-17T11:16:05.453Z,10.20
2022-11-17T11:21:16.796Z,10.10
2022-11-17T11:26:33.914Z,10.20
2022-11-17T11:31:47.769Z,10.20
2022-11-17T11:37:01.029Z,10.20
2022-11-17T11:42:33.927Z,10.10
2022-11-17T11:47:54.015Z,10.20
2022-11-17T11:53:01.928Z,10.20
2022-11-17T11:58:12.339Z,10.20
2022-11-17T12:03:26.539Z,10.20
2022-11-17T12:08:56.644Z,10.20
2022-11-17T12:13:59.553Z,10.20
2022-11-17T12:19:02.135Z,10.20
2022-11-17T12:24:14.890Z,10.20
2022-11-17T12:29:19.714Z,10.20
2022-11-17T12:34:28.939Z,10.20
2022-11-17T12:39:59.199Z,10.20
2022-11-17T12:45:05.204Z,10.10
2022-11-17T12:50:10.114Z,10.20
2022-11-17T12:55:21.145Z,10.20
2022-11-17T13:00:24.173Z,10.30
2022-11-17T13:05:28.321Z,10.30
2022-11-17T13:10:31.657Z,10.40
2022-11-17T13:15:33.463Z,10.40
2022-11-17T13:20:35.261Z,10.40
2022-11-17T13:25:37.072Z,10.50
2022-11-17T13:30:39.017Z,10.50
2022-11-17T13:35:40.848Z,10.60
2022-11-17T13:40:43.459Z,10.60
2022-11-17T13:45:47.164Z,10.60
2022-11-17T13:50:49.114Z,10.70
2022-11-17T13:55:51.443Z,10.70
2022-11-17T14:00:55.870Z,10.70
2022-11-17T14:05:57.837Z,10.80
2022-11-17T14:11:11.764Z,10.80
2022-11-17T14:16:27.320Z,10.80
2022-11-17T14:21:30.070Z,10.80
2022-11-17T14:26:32.063Z,10.80
2022-11-17T14:31:33.988Z,10.80
2022-11-17T14:36:37.199Z,10.80
2022-11-17T14:41:40.975Z,10.90
2022-11-17T14:46:42.989Z,10.80
2022-11-17T14:51:49.317Z,10.80
2022-11-17T14:56:51.287Z,10.80
2022-11-17T15:01:54.076Z,10.90
2022-11-17T15:06:57.079Z,10.90
2022-11-17T15:11:59.058Z,10.90
2022-11-17T15:17:00.866Z,10.90
2022-11-17T15:22:02.827Z,10.80
2022-11-17T15:27:04.686Z,10.80
2022-11-17T15:32:07.756Z,10.80
2022-11-17T15:37:09.577Z,10.80
2022-11-17T15:42:11.405Z,10.80
2022-11-17T15:47:13.229Z,10.80
2022-11-17T15:52:15.028Z,10.80
2022-11-17T15:57:16.785Z,10.80
2022-11-17T16:02:18.768Z,10.80
2022-11-17T16:07:20.598Z,10.70
2022-11-17T16:12:22.501Z,10.80
2022-11-17T16:17:24.391Z,10.80
2022-11-17T16:22:27.111Z,10.80
2022-11-17T16:27:29.086Z,10.80
2022-11-17T16:32:31.683Z,10.90
2022-11-17T16:37:34.237Z,10.80
2022-11-17T16:42:36.335Z,10.80
2022-11-17T16:47:38.201Z,10.80
2022-11-17T16:52:40.027Z,10.80
2022-11-17T16:57:41.857Z,10.80
2022-11-17T17:02:44.258Z,10.70
2022-11-17T17:07:46.196Z,10.70
2022-11-17T17:12:48.005Z,10.60
2022-11-17T17:17:49.856Z,10.60
2022-11-17T17:22:51.654Z,10.50
2022-11-17T17:27:53.438Z,10.50
2022-11-17T17:32:55.272Z,10.50
2022-11-17T17:37:57.320Z,10.40
2022-11-17T17:42:59.139Z,10.40
2022-11-17T17:48:00.957Z,10.30
2022-11-17T17:53:02.871Z,10.30
2022-11-17T17:58:04.766Z,10.30
2022-11-17T18:03:06.706Z,10.20
2022-11-17T18:08:08.553Z,10.20
2022-11-17T18:13:10.994Z,10.20
2022-11-17T18:18:13.024Z,10.20
2022-11-17T18:23:14.900Z,10.20
2022-11-17T18:28:16.744Z,10.10
2022-11-17T18:33:18.571Z,10.10
